createdAt,value
2018-08-10T00:04:12.922Z,19
2018-08-10T00:09:42.545Z,19
2018-08-10T00:15:17.316Z,18.9
2018-08-10T00:20:42.209Z,18.8
2018-08-10T00:26:11.730Z,18.7
2018-08-10T00:31:41.489Z,18.6
2018-08-10T00:37:10.858Z,18.6
2018-08-10T00:42:46.531Z,18.6
2018-08-10T00:48:12.132Z,18.6
2018-08-10T00:53:42.786Z,18.5
2018-08-10T00:59:12.674Z,18.5
2018-08-10T01:04:47.065Z,18.4
2018-08-10T01:10:12.471Z,18.4
2018-08-10T01:15:46.249Z,18.3
2018-08-10T01:21:13.889Z,18.3
2018-08-10T01:21:17.272Z,18.3
2018-08-10T01:26:42.484Z,18.3
2018-08-10T01:32:12.138Z,18.3
2018-08-10T01:37:41.697Z,18.3
2018-08-10T01:43:12.320Z,18.4
2018-08-10T01:48:47.977Z,18.4
2018-08-10T01:54:13.592Z,18.4
2018-08-10T01:59:49.226Z,18.4
2018-08-10T02:05:13.791Z,18.4
2018-08-10T02:10:43.479Z,18.3
2018-08-10T02:16:14.399Z,18.3
2018-08-10T02:21:48.890Z,18.3
2018-08-10T02:27:14.228Z,18.3
2018-08-10T02:32:43.820Z,18.3
2018-08-10T02:38:19.790Z,18.3
2018-08-10T02:43:44.594Z,18.2
2018-08-10T02:49:18.645Z,18.2
2018-08-10T02:54:49.594Z,18.2
2018-08-10T03:00:13.930Z,18.2
2018-08-10T03:05:43.456Z,18.2
2018-08-10T03:11:14.287Z,18.2
2018-08-10T03:16:43.647Z,18.2
2018-08-10T03:22:13.720Z,18.2
2018-08-10T03:27:42.833Z,18.2
2018-08-10T03:33:13.659Z,18.2
2018-08-10T03:38:50.296Z,18.1
2018-08-10T03:44:18.574Z,18.1
2018-08-10T03:49:43.308Z,18
2018-08-10T03:55:12.822Z,18
2018-08-10T04:00:43.605Z,17.8
2018-08-10T04:06:12.788Z,17.7
2018-08-10T04:11:42.292Z,17.6
2018-08-10T04:17:17.705Z,17.5
2018-08-10T04:22:43.473Z,17.5
2018-08-10T04:28:12.624Z,17.4
2018-08-10T04:33:43.157Z,17.4
2018-08-10T04:39:13.717Z,17.3
2018-08-10T04:44:48.346Z,17.3
2018-08-10T04:50:12.527Z,17.4
2018-08-10T04:55:41.980Z,17.5
2018-08-10T05:01:12.429Z,17.5
2018-08-10T05:06:43.215Z,17.6
2018-08-10T05:12:17.479Z,17.6
2018-08-10T05:17:46.910Z,17.6
2018-08-10T05:23:11.904Z,17.4
2018-08-10T05:28:40.842Z,17.2
2018-08-10T05:34:11.462Z,17
2018-08-10T05:39:40.857Z,16.8
2018-08-10T05:45:10.050Z,16.7
2018-08-10T05:50:39.450Z,16.7
2018-08-10T05:56:08.793Z,16.8
2018-08-10T06:01:43.203Z,17
2018-08-10T06:07:07.615Z,17.1
2018-08-10T06:12:43.329Z,17.1
2018-08-10T06:18:08.453Z,17.1
2018-08-10T06:23:38.023Z,17.2
2018-08-10T06:29:13.743Z,17.3
2018-08-10T06:34:37.888Z,17.4
2018-08-10T06:40:12.352Z,17.5
2018-08-10T06:45:37.808Z,17.7
2018-08-10T06:51:13.397Z,17.9
2018-08-10T06:56:37.959Z,18
2018-08-10T07:02:08.520Z,18.1
2018-08-10T07:07:38.208Z,17.9
2018-08-10T07:13:07.882Z,17.4
2018-08-10T07:18:38.226Z,17.1
2018-08-10T07:24:13.644Z,16.9
2018-08-10T07:29:38.682Z,16.8
2018-08-10T07:35:08.211Z,16.8
2018-08-10T07:40:44.105Z,16.9
2018-08-10T07:46:12.994Z,17.2
2018-08-10T07:51:37.642Z,17.3
2018-08-10T07:57:12.167Z,17.5
2018-08-10T08:02:36.363Z,17.7
2018-08-10T08:08:05.968Z,17.9
2018-08-10T08:08:06.756Z,17.9
2018-08-10T08:13:36.792Z,18.1
2018-08-10T08:19:06.340Z,18.4
2018-08-10T08:24:40.700Z,18.4
2018-08-10T08:30:05.646Z,18.3
2018-08-10T08:35:39.911Z,18.2
2018-08-10T08:41:05.681Z,18.1
2018-08-10T08:46:35.187Z,17.8
2018-08-10T08:52:05.497Z,17.4
2018-08-10T08:57:35.918Z,17.2
2018-08-10T09:03:06.320Z,17.3
2018-08-10T09:08:36.805Z,17.8
2018-08-10T09:14:07.753Z,18.4
2018-08-10T09:19:38.115Z,18.6
2018-08-10T09:25:08.671Z,18.6
2018-08-10T09:30:43.376Z,18.7
2018-08-10T09:36:12.987Z,18.9
2018-08-10T09:41:37.885Z,19
2018-08-10T09:47:08.317Z,19
2018-08-10T09:52:38.907Z,18.8
2018-08-10T09:58:13.902Z,18.7
2018-08-10T10:03:38.698Z,18.8
2018-08-10T10:03:39.093Z,18.8
2018-08-10T10:09:08.041Z,19
2018-08-10T10:14:38.611Z,19.1
2018-08-10T10:20:09.512Z,19.1
2018-08-10T10:25:40.097Z,19.1
2018-08-10T10:31:09.662Z,19.2
2018-08-10T10:36:39.345Z,19.3
2018-08-10T10:42:10.191Z,19.5
2018-08-10T10:47:45.125Z,19.8
2018-08-10T10:53:09.769Z,20
2018-08-10T10:58:45.556Z,19.8
2018-08-10T11:04:11.023Z,19.5
2018-08-10T11:09:40.657Z,19.3
2018-08-10T11:09:43.147Z,19.3
2018-08-10T11:15:11.468Z,19.6
2018-08-10T11:20:41.101Z,19.8
2018-08-10T11:26:11.964Z,19.8
2018-08-10T11:31:46.637Z,20
2018-08-10T11:37:16.399Z,20
2018-08-10T11:42:41.329Z,19.8
2018-08-10T11:48:15.798Z,19.4
2018-08-10T11:53:41.061Z,19.1
2018-08-10T11:59:11.113Z,18.7
2018-08-10T12:04:40.761Z,18.6
2018-08-10T12:10:10.484Z,18.9
2018-08-10T12:15:41.135Z,19.3
2018-08-10T12:21:11.863Z,19.7
2018-08-10T12:26:47.072Z,19.9
2018-08-10T12:32:12.583Z,19.7
2018-08-10T12:37:43.210Z,19.5
2018-08-10T12:43:12.681Z,19.3
2018-08-10T12:48:48.692Z,19.1
2018-08-10T12:54:13.109Z,19.1
2018-08-10T12:59:43.756Z,19.3
2018-08-10T13:05:19.556Z,19.5
2018-08-10T13:10:49.664Z,19.4
2018-08-10T13:16:13.885Z,19.1
2018-08-10T13:21:44.666Z,19
2018-08-10T13:27:15.222Z,18.9
2018-08-10T13:32:44.844Z,18.6
2018-08-10T13:32:45.399Z,18.6
2018-08-10T13:38:15.800Z,18.4
2018-08-10T13:43:45.266Z,18.2
2018-08-10T13:49:14.715Z,18.2
2018-08-10T13:54:44.320Z,18.2
2018-08-10T14:00:14.170Z,18.2
2018-08-10T14:05:48.697Z,18.3
2018-08-10T14:11:19.254Z,18.4
2018-08-10T14:16:44.697Z,18.6
2018-08-10T14:22:15.650Z,18.8
2018-08-10T14:27:51.250Z,19.3
2018-08-10T14:33:16.834Z,19.5
2018-08-10T14:38:46.560Z,19.6
2018-08-10T14:44:16.301Z,19.9
2018-08-10T14:49:52.081Z,20
2018-08-10T14:55:16.790Z,20.1
2018-08-10T15:00:51.853Z,20.2
2018-08-10T15:06:16.642Z,20.1
2018-08-10T15:11:46.149Z,19.8
2018-08-10T15:17:15.833Z,19.4
2018-08-10T15:22:45.492Z,19.1
2018-08-10T15:28:15.341Z,18.9
2018-08-10T15:33:45.827Z,18.8
2018-08-10T15:39:21.778Z,18.7
2018-08-10T15:44:46.125Z,18.6
2018-08-10T15:50:16.014Z,18.5
2018-08-10T15:55:46.646Z,18.4
2018-08-10T16:01:16.989Z,18.3
2018-08-10T16:06:46.576Z,18.3
2018-08-10T16:12:16.262Z,18.3
2018-08-10T16:17:45.844Z,18.4
2018-08-10T16:23:16.564Z,18.5
2018-08-10T16:28:52.146Z,18.6
2018-08-10T16:34:17.788Z,18.7
2018-08-10T16:39:48.709Z,18.9
2018-08-10T16:45:23.639Z,19.1
2018-08-10T16:50:47.939Z,19.1
2018-08-10T16:56:17.651Z,19
2018-08-10T17:01:48.229Z,18.9
2018-08-10T17:07:18.183Z,18.7
2018-08-10T17:12:47.599Z,18.6
2018-08-10T17:18:23.206Z,18.6
2018-08-10T17:23:47.829Z,18.5
2018-08-10T17:29:23.702Z,18.4
2018-08-10T17:34:48.056Z,18.2
2018-08-10T17:40:23.697Z,18.1
2018-08-10T17:45:53.543Z,18.1
2018-08-10T17:51:19.145Z,18.1
2018-08-10T17:56:53.516Z,18.1
2018-08-10T18:02:24.226Z,18
2018-08-10T18:07:54.912Z,17.9
2018-08-10T18:13:20.166Z,17.9
2018-08-10T18:18:54.741Z,17.9
2018-08-10T18:24:20.416Z,17.8
2018-08-10T18:29:50.170Z,17.7
2018-08-10T18:35:20.417Z,17.7
2018-08-10T18:40:51.136Z,17.6
2018-08-10T18:46:21.807Z,17.5
2018-08-10T18:51:51.116Z,17.5
2018-08-10T18:57:20.447Z,17.5
2018-08-10T19:02:49.803Z,17.4
2018-08-10T19:08:19.589Z,17.3
2018-08-10T19:13:48.734Z,17.3
2018-08-10T19:19:18.526Z,17.2
2018-08-10T19:24:48.925Z,17.1
2018-08-10T19:30:19.155Z,17
2018-08-10T19:35:49.513Z,16.9
2018-08-10T19:41:19.995Z,16.8
2018-08-10T19:46:54.379Z,16.7
2018-08-10T19:52:18.716Z,16.6
2018-08-10T19:52:19.456Z,16.6
2018-08-10T19:57:53.158Z,16.4
2018-08-10T20:03:17.584Z,16.3
2018-08-10T20:08:47.797Z,16.2
2018-08-10T20:14:18.401Z,16.1
2018-08-10T20:19:54.047Z,16
2018-08-10T20:25:17.819Z,15.9
2018-08-10T20:30:48.390Z,15.8
2018-08-10T20:36:17.459Z,15.8
2018-08-10T20:41:52.739Z,15.8
2018-08-10T20:47:23.058Z,15.7
2018-08-10T20:52:48.368Z,15.7
2018-08-10T20:58:17.665Z,15.6
2018-08-10T21:03:47.107Z,15.5
2018-08-10T21:09:16.269Z,15.5
2018-08-10T21:14:51.201Z,15.4
2018-08-10T21:20:16.026Z,15.4
2018-08-10T21:25:51.074Z,15.4
2018-08-10T21:31:20.941Z,15.4
2018-08-10T21:36:44.867Z,15.5
2018-08-10T21:36:45.029Z,15.5
2018-08-10T21:42:13.994Z,15.5
2018-08-10T21:47:48.515Z,15.4
2018-08-10T21:53:13.384Z,15.4
2018-08-10T21:58:43.776Z,15.3
2018-08-10T22:04:13.130Z,15.3
2018-08-10T22:09:43.229Z,15.2
2018-08-10T22:15:13.421Z,15.2
2018-08-10T22:20:43.627Z,15.1
2018-08-10T22:26:46.020Z,15
2018-08-10T22:31:43.658Z,15
2018-08-10T22:37:13.427Z,14.9
2018-08-10T22:42:48.521Z,14.9
2018-08-10T22:48:19.029Z,14.8
2018-08-10T22:53:43.297Z,14.8
2018-08-10T22:59:12.519Z,14.8
2018-08-10T23:04:42.340Z,14.7
2018-08-10T23:10:12.545Z,14.7
2018-08-10T23:15:41.731Z,14.7
2018-08-10T23:21:15.987Z,14.7
2018-08-10T23:26:41.139Z,14.7
2018-08-10T23:32:16.344Z,14.6
2018-08-10T23:37:40.741Z,14.6
2018-08-10T23:43:10.686Z,14.5
2018-08-10T23:48:39.913Z,14.5
2018-08-10T23:54:15.112Z,14.6
2018-08-10T23:59:39.539Z,14.6
